Time;durP1;ratioP1;P1;durP2;ratioP2;P2;SDS_P1;SDS_P2;PMS_P1;PMS_P2;Temp;Humidity;BMP_temperature;BMP_pressure;BME280_temperature;BME280_humidity;BME280_pressure;Samples;Min_cycle;Max_cycle;Signal;HPM_P1;HPM_P2
2022/09/06 00:00:55;;;;;;;7.50;5.00;;;20.40;98.20;;;;;;3058804;19;20569;-62
2022/09/06 00:01:59;;;;;;;6.53;4.85;;;20.20;98.20;;;;;;3059224;19;20007;-63
2022/09/06 00:03:00;;;;;;;7.07;4.60;;;20.20;98.00;;;;;;3058856;19;20011;-62
2022/09/06 00:04:05;;;;;;;5.22;4.22;;;20.30;98.10;;;;;;3058975;19;20033;-63
2022/09/06 00:05:08;;;;;;;8.82;5.07;;;20.30;98.10;;;;;;3059186;19;20029;-64
2022/09/06 00:06:14;;;;;;;7.57;5.07;;;20.20;98.00;;;;;;3059446;19;20416;-63
2022/09/06 00:07:15;;;;;;;7.25;4.93;;;20.30;98.10;;;;;;3058793;19;20494;-64
2022/09/06 00:08:19;;;;;;;6.70;5.07;;;20.20;97.90;;;;;;3058951;19;20014;-63
2022/09/06 00:09:20;;;;;;;6.57;4.75;;;20.30;98.00;;;;;;3058839;19;20490;-63
2022/09/06 00:10:24;;;;;;;5.97;5.10;;;20.30;98.00;;;;;;3059202;19;20103;-63
2022/09/06 00:11:25;;;;;;;7.40;4.95;;;20.40;98.30;;;;;;3058650;19;20463;-63
2022/09/06 00:12:29;;;;;;;7.90;5.07;;;20.40;98.30;;;;;;3059297;19;20025;-63
2022/09/06 00:13:31;;;;;;;6.30;5.00;;;20.30;98.20;;;;;;3058874;19;20014;-62
2022/09/06 00:14:35;;;;;;;6.43;4.90;;;20.20;98.10;;;;;;3059215;19;20018;-63
2022/09/06 00:15:37;;;;;;;8.10;4.90;;;20.20;98.10;;;;;;3058811;19;20336;-63
2022/09/06 00:16:43;;;;;;;;;;;20.20;98.10;;;;;;3059145;19;20027;-63
2022/09/06 00:17:44;;;;;;;6.57;5.15;;;20.20;98.20;;;;;;3058827;19;20356;-62
2022/09/06 00:18:48;;;;;;;6.53;4.78;;;20.10;98.00;;;;;;3058772;19;20038;-63
2022/09/06 00:19:50;;;;;;;7.50;5.15;;;20.00;98.10;;;;;;3058847;19;20450;-63
2022/09/06 00:20:54;;;;;;;9.57;5.13;;;20.00;98.00;;;;;;3058935;19;20024;-63
2022/09/06 00:21:55;;;;;;;8.80;4.90;;;20.00;98.00;;;;;;3059026;19;20006;-63
2022/09/06 00:23:00;;;;;;;8.40;5.40;;;20.20;97.90;;;;;;3060078;19;20010;-63
2022/09/06 00:24:02;;;;;;;7.75;5.07;;;20.20;98.00;;;;;;3058601;19;20367;-63
2022/09/06 00:25:07;;;;;;;6.22;5.15;;;20.10;98.10;;;;;;3059064;19;19999;-62
2022/09/06 00:26:08;;;;;;;9.05;4.90;;;20.00;97.80;;;;;;3058937;19;20013;-63
2022/09/06 00:27:12;;;;;;;6.45;5.80;;;20.10;98.00;;;;;;3059034;19;20007;-63
2022/09/06 00:28:15;;;;;;;6.60;5.22;;;20.10;98.10;;;;;;3058655;19;20010;-62
2022/09/06 00:29:19;;;;;;;6.20;4.97;;;20.10;98.10;;;;;;3058600;19;20459;-62
2022/09/06 00:30:20;;;;;;;5.60;5.10;;;20.00;98.00;;;;;;3057679;19;20007;-63
2022/09/06 00:31:26;;;;;;;7.28;5.07;;;20.00;97.90;;;;;;3059222;19;20026;-63
2022/09/06 00:32:31;;;;;;;6.80;5.07;;;20.00;97.90;;;;;;3059640;19;20496;-63
2022/09/06 00:33:35;;;;;;;6.40;5.57;;;20.00;98.20;;;;;;3059443;19;20474;-63
2022/09/06 00:34:36;;;;;;;7.78;5.18;;;19.80;98.00;;;;;;3058894;19;20015;-63
2022/09/06 00:35:40;;;;;;;9.13;5.45;;;19.90;98.00;;;;;;3058740;19;20023;-63
2022/09/06 00:36:41;;;;;;;5.97;4.70;;;19.90;97.80;;;;;;3058850;19;20014;-63
2022/09/06 00:37:45;;;;;;;5.75;5.15;;;19.80;97.80;;;;;;3058450;19;20352;-63
2022/09/06 00:38:47;;;;;;;8.70;5.43;;;20.10;98.10;;;;;;3058676;19;19999;-63
2022/09/06 00:39:50;;;;;;;8.20;5.15;;;19.90;97.90;;;;;;3057674;19;20014;-63
2022/09/06 00:40:52;;;;;;;7.00;5.30;;;19.90;98.10;;;;;;3058140;19;20028;-63
2022/09/06 00:41:56;;;;;;;10.48;5.05;;;20.00;98.30;;;;;;3058054;19;20015;-63
2022/09/06 00:42:57;;;;;;;6.53;5.22;;;20.00;98.20;;;;;;3060156;19;20015;-62
2022/09/06 00:44:01;;;;;;;8.23;5.50;;;20.00;98.30;;;;;;3058616;19;20009;-63
2022/09/06 00:45:04;;;;;;;5.68;5.18;;;20.00;98.20;;;;;;3059609;19;20011;-63
2022/09/06 00:46:11;;;;;;;7.07;5.30;;;20.00;98.20;;;;;;3058322;19;19999;-63
2022/09/06 00:47:12;;;;;;;7.10;5.28;;;19.80;98.20;;;;;;3058816;19;20086;-63
2022/09/06 00:48:19;;;;;;;6.43;5.00;;;19.80;98.20;;;;;;3059358;19;20479;-63
2022/09/06 00:49:26;;;;;;;7.75;5.32;;;19.80;98.20;;;;;;3058612;19;20006;-63
2022/09/06 00:50:31;;;;;;;8.68;5.22;;;19.90;98.20;;;;;;3058313;19;20029;-63
2022/09/06 00:51:34;;;;;;;6.53;5.30;;;19.80;98.20;;;;;;3058804;19;20003;-63
2022/09/06 00:52:40;;;;;;;5.75;5.10;;;19.90;98.50;;;;;;3058571;19;20018;-63
2022/09/06 00:53:41;;;;;;;5.97;5.15;;;19.80;98.50;;;;;;3058496;19;20007;-63
2022/09/06 00:54:46;;;;;;;6.10;5.50;;;20.00;98.40;;;;;;3058477;19;20019;-62
2022/09/06 00:55:47;;;;;;;9.30;5.47;;;19.90;98.40;;;;;;3058830;19;20011;-63
2022/09/06 00:56:52;;;;;;;6.03;5.43;;;19.80;98.20;;;;;;3058215;19;20086;-63
2022/09/06 00:57:54;;;;;;;5.88;5.00;;;19.70;98.20;;;;;;3058733;19;20494;-63
2022/09/06 00:58:59;;;;;;;6.65;5.28;;;19.70;98.30;;;;;;3058048;19;20392;-63
2022/09/06 01:00:03;;;;;;;7.07;5.47;;;19.80;98.20;;;;;;3058674;19;20009;-63
2022/09/06 01:01:08;;;;;;;7.57;5.15;;;19.90;98.20;;;;;;3058093;19;20015;-63
2022/09/06 01:02:10;;;;;;;6.38;5.78;;;19.70;98.30;;;;;;3058078;19;20006;-63
2022/09/06 01:03:14;;;;;;;7.28;5.50;;;19.60;98.40;;;;;;3057965;19;20010;-63
2022/09/06 01:04:18;;;;;;;6.63;5.80;;;19.80;98.30;;;;;;3057807;19;20015;-63
2022/09/06 01:05:25;;;;;;;6.45;5.55;;;19.70;98.20;;;;;;3059328;19;20041;-62
2022/09/06 01:06:33;;;;;;;6.03;5.10;;;19.80;98.30;;;;;;3058421;19;20006;-63
2022/09/06 01:07:52;;;;;;;8.77;5.40;;;19.60;98.40;;;;;;3058120;19;20372;-63
2022/09/06 01:09:03;;;;;;;6.85;5.20;;;19.80;98.40;;;;;;3058141;19;20347;-63
2022/09/06 01:10:32;;;;;;;7.63;5.15;;;19.80;98.50;;;;;;3058334;19;20018;-63
2022/09/06 01:11:49;;;;;;;7.13;5.78;;;19.80;98.60;;;;;;3058140;19;20344;-63
2022/09/06 01:13:02;;;;;;;7.00;5.15;;;19.80;98.60;;;;;;3059232;19;20111;-63
2022/09/06 01:14:16;;;;;;;9.77;5.68;;;19.50;98.50;;;;;;3057736;19;20364;-63
2022/09/06 01:15:30;;;;;;;6.43;5.68;;;19.60;98.50;;;;;;3057478;19;20347;-62
2022/09/06 01:16:47;;;;;;;7.93;5.55;;;19.50;98.50;;;;;;3057940;19;20070;-62
2022/09/06 01:18:00;;;;;;;6.65;5.32;;;19.60;98.60;;;;;;3059125;19;20375;-63
2022/09/06 01:19:32;;;;;;;6.43;5.35;;;19.70;98.70;;;;;;3058503;19;19999;-62
2022/09/06 01:20:50;;;;;;;7.80;5.53;;;19.70;98.70;;;;;;3058335;19;20498;-63
2022/09/06 01:22:03;;;;;;;6.05;5.13;;;19.60;98.80;;;;;;3058074;19;20006;-62
2022/09/06 01:23:39;;;;;;;7.63;5.82;;;19.60;98.80;;;;;;3059799;19;20493;-63
2022/09/06 01:25:03;;;;;;;8.00;5.40;;;19.60;99.00;;;;;;3057371;19;20011;-63
2022/09/06 01:26:18;;;;;;;9.43;5.78;;;19.50;98.90;;;;;;3057985;19;20285;-63
2022/09/06 01:27:52;;;;;;;6.97;5.90;;;19.50;98.90;;;;;;3058202;19;20069;-63
2022/09/06 01:28:57;;;;;;;7.35;6.20;;;19.60;98.80;;;;;;3057854;19;20367;-63
2022/09/06 01:30:06;;;;;;;7.60;5.82;;;19.60;98.90;;;;;;3057729;19;20010;-63
2022/09/06 01:31:20;;;;;;;7.78;5.72;;;19.60;98.90;;;;;;3058922;19;20027;-63
2022/09/06 01:32:31;;;;;;;7.75;6.20;;;19.50;98.90;;;;;;3057686;19;20006;-63
2022/09/06 01:33:40;;;;;;;7.85;6.10;;;19.50;98.80;;;;;;3058209;19;20022;-63
2022/09/06 01:34:49;;;;;;;6.97;5.63;;;19.50;98.80;;;;;;3057672;19;20022;-64
2022/09/06 01:35:55;;;;;;;9.80;6.10;;;19.60;98.90;;;;;;3058257;19;20002;-63
2022/09/06 01:37:03;;;;;;;6.80;6.10;;;19.70;98.90;;;;;;3058065;19;20050;-63
2022/09/06 01:38:06;;;;;;;7.85;6.18;;;19.60;98.80;;;;;;3059068;19;20041;-63
2022/09/06 01:39:15;;;;;;;8.77;5.88;;;19.50;98.80;;;;;;3058770;19;20007;-64
2022/09/06 01:40:17;;;;;;;7.05;5.70;;;19.60;98.80;;;;;;3057993;19;20018;-64
2022/09/06 01:41:21;;;;;;;7.95;5.40;;;17.50;98.20;;;;;;3059747;19;20007;-63
2022/09/06 01:42:24;;;;;;;8.20;6.35;;;19.60;98.70;;;;;;3060794;19;20016;-64
2022/09/06 01:43:34;;;;;;;7.03;5.80;;;19.50;98.90;;;;;;3062398;19;20025;-63
2022/09/06 01:44:43;;;;;;;7.72;6.15;;;19.60;98.90;;;;;;3060047;19;20025;-63
2022/09/06 01:46:02;;;;;;;6.82;6.22;;;19.50;99.00;;;;;;3060756;19;20006;-63
2022/09/06 01:47:12;;;;;;;7.63;6.38;;;19.40;99.10;;;;;;3060402;19;20018;-63
2022/09/06 01:48:24;;;;;;;8.90;6.43;;;19.70;99.10;;;;;;3061132;19;20023;-63
2022/09/06 01:49:33;;;;;;;;;;;19.60;99.10;;;;;;3061532;19;20003;-64
2022/09/06 01:50:48;;;;;;;8.93;6.28;;;19.50;99.00;;;;;;3060968;19;19922;-63
2022/09/06 01:52:02;;;;;;;8.80;6.25;;;19.50;99.00;;;;;;3061143;19;20020;-64
2022/09/06 01:53:17;;;;;;;8.10;6.05;;;19.60;99.00;;;;;;3061945;19;20025;-63
2022/09/06 01:54:27;;;;;;;10.57;6.43;;;19.50;99.10;;;;;;3061088;19;20022;-64
2022/09/06 01:55:36;;;;;;;8.40;6.18;;;19.40;99.00;;;;;;3059802;19;20024;-63
2022/09/06 01:56:47;;;;;;;7.95;6.00;;;19.40;99.10;;;;;;3062656;19;20018;-63
2022/09/06 01:58:16;;;;;;;6.80;5.50;;;19.40;99.40;;;;;;3060752;19;20017;-63
2022/09/06 01:59:39;;;;;;;7.03;5.82;;;19.40;98.70;;;;;;3060480;19;20007;-64
2022/09/06 02:00:51;;;;;;;7.93;5.68;;;19.60;99.40;;;;;;3060877;19;20367;-63
2022/09/06 02:02:00;;;;;;;6.95;6.22;;;19.20;99.20;;;;;;3060800;19;20007;-64
2022/09/06 02:03:13;;;;;;;7.57;6.18;;;19.40;99.30;;;;;;3060749;19;20027;-64
2022/09/06 02:04:20;;;;;;;7.25;5.78;;;19.30;99.40;;;;;;3059927;19;20022;-63
2022/09/06 02:05:29;;;;;;;8.15;6.22;;;19.30;99.50;;;;;;3060287;19;20042;-63
2022/09/06 02:06:38;;;;;;;9.38;5.90;;;19.40;99.70;;;;;;3060851;19;20351;-63
2022/09/06 02:07:42;;;;;;;8.15;6.15;;;19.20;99.80;;;;;;3060518;19;20018;-63
2022/09/06 02:08:50;;;;;;;10.32;6.35;;;19.10;99.90;;;;;;3060916;19;20370;-63
2022/09/06 02:09:55;;;;;;;6.47;5.78;;;19.10;99.80;;;;;;3060416;19;20506;-64
2022/09/06 02:11:03;;;;;;;8.05;6.60;;;19.30;99.90;;;;;;3060802;19;20028;-63
2022/09/06 02:12:06;;;;;;;10.23;6.70;;;19.30;99.90;;;;;;3060686;19;20011;-63
2022/09/06 02:13:13;;;;;;;7.50;6.28;;;19.10;99.90;;;;;;3061377;19;20367;-63
2022/09/06 02:14:18;;;;;;;7.60;6.65;;;19.20;99.90;;;;;;3059541;19;20010;-63
2022/09/06 02:15:28;;;;;;;7.05;6.22;;;19.20;99.90;;;;;;3060135;19;20025;-64
2022/09/06 02:16:34;;;;;;;8.27;7.05;;;19.20;99.90;;;;;;3060328;19;20462;-63
2022/09/06 02:17:44;;;;;;;6.85;6.03;;;19.10;99.90;;;;;;3060649;19;20062;-64
2022/09/06 02:18:51;;;;;;;10.20;6.38;;;19.40;99.90;;;;;;3060724;19;20015;-63
2022/09/06 02:19:59;;;;;;;10.30;6.65;;;19.30;99.90;;;;;;3062072;19;20030;-64
2022/09/06 02:21:03;;;;;;;8.00;6.30;;;19.20;99.90;;;;;;3060987;19;20450;-64
2022/09/06 02:22:10;;;;;;;8.15;6.80;;;19.20;99.90;;;;;;3060305;19;20014;-64
2022/09/06 02:23:13;;;;;;;8.05;6.35;;;19.00;99.90;;;;;;3061575;19;20025;-63
2022/09/06 02:24:21;;;;;;;7.78;6.78;;;19.20;99.90;;;;;;3060387;19;20805;-64
2022/09/06 02:25:26;;;;;;;7.45;6.40;;;19.00;99.90;;;;;;3060722;19;20031;-64
2022/09/06 02:26:34;;;;;;;8.18;6.90;;;19.10;99.90;;;;;;3060311;19;20570;-63
2022/09/06 02:27:36;;;;;;;7.18;6.20;;;19.30;99.90;;;;;;3060582;19;20018;-63
2022/09/06 02:28:40;;;;;;;10.30;6.85;;;19.10;99.90;;;;;;3060317;19;20021;-63
2022/09/06 02:29:41;;;;;;;7.70;6.45;;;19.20;99.90;;;;;;3060240;19;20015;-63
2022/09/06 02:30:51;;;;;;;8.57;6.97;;;19.20;99.90;;;;;;3061860;19;20018;-64
2022/09/06 02:31:59;;;;;;;9.38;7.28;;;19.20;99.90;;;;;;3060383;19;20513;-63
2022/09/06 02:33:08;;;;;;;8.48;6.90;;;19.10;99.90;;;;;;3061055;19;20034;-63
2022/09/06 02:34:12;;;;;;;9.15;7.05;;;19.10;99.90;;;;;;3060576;19;20028;-63
2022/09/06 02:35:18;;;;;;;7.03;6.32;;;19.10;99.90;;;;;;3060112;19;20062;-63
2022/09/06 02:36:19;;;;;;;8.90;6.82;;;18.80;99.90;;;;;;3060199;19;20007;-64
2022/09/06 02:37:25;;;;;;;8.57;6.68;;;19.00;99.90;;;;;;3060391;19;20482;-63
2022/09/06 02:38:27;;;;;;;8.80;6.68;;;19.20;99.90;;;;;;3060379;19;20006;-64
2022/09/06 02:39:30;;;;;;;8.80;6.25;;;19.00;99.90;;;;;;3061363;19;20026;-63
2022/09/06 02:40:32;;;;;;;7.68;6.60;;;19.10;99.90;;;;;;3060166;19;20009;-63
2022/09/06 02:41:36;;;;;;;7.90;6.72;;;19.10;99.90;;;;;;3060559;19;20393;-63
2022/09/06 02:42:38;;;;;;;7.18;6.18;;;19.10;99.90;;;;;;3060777;19;20021;-63
2022/09/06 02:43:43;;;;;;;7.57;6.30;;;19.00;99.90;;;;;;3060414;19;20010;-63
2022/09/06 02:44:45;;;;;;;9.35;6.95;;;19.00;99.90;;;;;;3059879;19;20014;-64
2022/09/06 02:45:51;;;;;;;8.15;6.63;;;19.00;99.90;;;;;;3060194;19;20028;-63
2022/09/06 02:46:52;;;;;;;7.82;6.75;;;19.20;99.90;;;;;;3059738;19;20011;-63
2022/09/06 02:47:56;;;;;;;9.60;7.22;;;18.80;99.90;;;;;;3060217;19;20503;-63
2022/09/06 02:48:57;;;;;;;11.02;6.65;;;19.10;99.90;;;;;;3060017;19;20013;-63
2022/09/06 02:50:01;;;;;;;7.68;6.88;;;18.70;99.90;;;;;;3060209;19;20438;-63
2022/09/06 02:51:03;;;;;;;9.23;6.75;;;18.90;99.90;;;;;;3059903;19;20010;-63
2022/09/06 02:52:07;;;;;;;7.97;7.10;;;18.60;99.90;;;;;;3060166;19;20014;-63
2022/09/06 02:53:10;;;;;;;10.00;7.30;;;18.90;99.90;;;;;;3060197;19;20022;-63
2022/09/06 02:54:14;;;;;;;7.85;6.97;;;18.80;99.90;;;;;;3060114;19;20009;-64
2022/09/06 02:55:15;;;;;;;7.95;7.10;;;18.90;99.90;;;;;;3059762;19;20494;-63
2022/09/06 02:56:19;;;;;;;9.88;7.32;;;18.90;99.90;;;;;;3060414;19;20007;-63
2022/09/06 02:57:21;;;;;;;8.45;6.88;;;18.60;99.90;;;;;;3059832;19;20003;-62
2022/09/06 02:58:26;;;;;;;8.20;6.85;;;18.90;99.90;;;;;;3060192;19;20017;-63
2022/09/06 02:59:27;;;;;;;9.32;7.32;;;18.60;99.90;;;;;;3059935;19;20016;-63
2022/09/06 03:00:32;;;;;;;8.48;7.40;;;19.00;99.90;;;;;;3060336;19;20025;-63
2022/09/06 03:01:36;;;;;;;9.48;6.88;;;18.70;99.90;;;;;;3059860;19;20023;-63
2022/09/06 03:02:39;;;;;;;8.35;7.28;;;18.80;99.90;;;;;;3060535;19;20010;-63
2022/09/06 03:03:41;;;;;;;9.52;7.15;;;19.00;99.90;;;;;;3059351;19;20014;-64
2022/09/06 03:04:45;;;;;;;9.48;7.47;;;19.00;99.90;;;;;;3062105;19;20019;-63
2022/09/06 03:05:47;;;;;;;8.40;7.15;;;19.00;99.90;;;;;;3061085;19;20030;-63
2022/09/06 03:06:51;;;;;;;8.35;7.28;;;18.90;99.90;;;;;;3059987;19;20501;-63
2022/09/06 03:07:53;;;;;;;8.18;7.38;;;18.90;99.90;;;;;;3059687;19;20361;-63
2022/09/06 03:08:58;;;;;;;9.20;7.40;;;18.90;99.90;;;;;;3060067;19;20006;-63
2022/09/06 03:10:00;;;;;;;7.97;7.18;;;19.00;99.90;;;;;;3059783;19;20011;-63
2022/09/06 03:11:04;;;;;;;8.73;7.82;;;18.80;99.90;;;;;;3061435;19;20030;-63
2022/09/06 03:12:05;;;;;;;8.70;7.38;;;18.90;99.90;;;;;;3059752;19;20014;-64
2022/09/06 03:13:09;;;;;;;8.23;7.30;;;19.00;99.90;;;;;;3061322;19;20015;-63
2022/09/06 03:14:10;;;;;;;10.05;7.53;;;18.90;99.90;;;;;;3059176;19;20014;-63
2022/09/06 03:15:15;;;;;;;9.00;7.35;;;19.00;99.90;;;;;;3060022;19;20023;-64
2022/09/06 03:16:17;;;;;;;9.38;7.70;;;18.80;99.90;;;;;;3058341;19;20092;-63
2022/09/06 03:17:23;;;;;;;;;;;18.80;99.90;;;;;;3060627;19;20007;-64
2022/09/06 03:18:25;;;;;;;9.70;7.80;;;18.80;99.90;;;;;;3059771;19;19915;-63
2022/09/06 03:19:29;;;;;;;8.70;7.80;;;18.90;99.90;;;;;;3059763;19;20002;-64
2022/09/06 03:20:30;;;;;;;11.93;7.57;;;18.90;99.90;;;;;;3059499;19;20036;-63
2022/09/06 03:21:34;;;;;;;10.07;7.00;;;18.80;99.90;;;;;;3061288;19;20015;-63
2022/09/06 03:22:36;;;;;;;8.63;7.25;;;19.00;99.90;;;;;;3060203;19;20516;-64
2022/09/06 03:23:40;;;;;;;9.63;7.85;;;18.70;99.90;;;;;;3060174;19;19995;-64
2022/09/06 03:24:41;;;;;;;8.95;7.85;;;18.80;99.90;;;;;;3059660;19;20019;-64
2022/09/06 03:25:45;;;;;;;8.93;7.82;;;18.90;99.90;;;;;;3059904;19;20002;-64
2022/09/06 03:26:46;;;;;;;9.60;7.97;;;18.80;99.90;;;;;;3059454;19;20018;-63
2022/09/06 03:27:50;;;;;;;8.65;7.60;;;18.90;99.90;;;;;;3061080;19;20018;-64
2022/09/06 03:28:51;;;;;;;9.68;7.90;;;18.70;99.90;;;;;;3059356;19;20039;-63
2022/09/06 03:29:55;;;;;;;11.52;7.60;;;18.80;99.90;;;;;;3060057;19;20006;-64
2022/09/06 03:30:57;;;;;;;11.20;8.38;;;18.80;99.90;;;;;;3059330;19;20017;-63
2022/09/06 03:32:00;;;;;;;11.77;8.05;;;18.80;99.90;;;;;;3059622;19;20009;-66
2022/09/06 03:33:04;;;;;;;9.63;8.20;;;18.90;99.90;;;;;;3060153;19;20040;-63
2022/09/06 03:34:09;;;;;;;9.13;8.07;;;18.80;99.90;;;;;;3059667;19;20015;-63
2022/09/06 03:35:11;;;;;;;9.60;8.55;;;18.90;99.90;;;;;;3059380;19;20626;-64
2022/09/06 03:36:16;;;;;;;10.95;8.57;;;18.70;99.90;;;;;;3059019;19;20026;-63
2022/09/06 03:37:18;;;;;;;10.52;8.65;;;18.80;99.90;;;;;;3059433;19;20011;-63
2022/09/06 03:38:22;;;;;;;9.73;8.20;;;18.70;99.90;;;;;;3060846;19;20503;-63
2022/09/06 03:39:24;;;;;;;9.55;8.00;;;18.70;99.90;;;;;;3059175;19;20007;-63
2022/09/06 03:40:27;;;;;;;9.35;8.02;;;18.90;99.90;;;;;;3059475;19;20077;-63
2022/09/06 03:41:29;;;;;;;9.05;8.15;;;18.70;99.90;;;;;;3059597;19;20035;-64
2022/09/06 03:42:32;;;;;;;8.95;8.05;;;18.80;99.90;;;;;;3059982;19;20409;-63
2022/09/06 03:43:34;;;;;;;9.05;8.07;;;18.80;99.90;;;;;;3059033;19;20010;-63
2022/09/06 03:44:38;;;;;;;10.95;7.78;;;18.60;99.90;;;;;;3059501;19;20013;-64
2022/09/06 03:45:39;;;;;;;11.60;8.27;;;18.80;99.90;;;;;;3059198;19;20506;-63
2022/09/06 03:46:43;;;;;;;11.32;8.27;;;18.80;99.90;;;;;;3059213;19;20029;-63
2022/09/06 03:47:44;;;;;;;10.02;8.10;;;18.70;99.90;;;;;;3060140;19;20510;-63
2022/09/06 03:48:51;;;;;;;9.85;8.73;;;18.70;99.90;;;;;;3059457;19;20010;-64
2022/09/06 03:49:52;;;;;;;9.32;8.10;;;18.50;99.90;;;;;;3058984;19;20027;-63
2022/09/06 03:50:58;;;;;;;10.32;9.05;;;18.80;99.90;;;;;;3059361;19;20038;-63
2022/09/06 03:51:59;;;;;;;10.15;8.15;;;18.60;99.90;;;;;;3060300;19;20010;-63
2022/09/06 03:53:03;;;;;;;11.90;8.85;;;18.70;99.90;;;;;;3060687;19;20475;-64
2022/09/06 03:54:05;;;;;;;10.45;8.80;;;18.60;99.90;;;;;;3059042;19;20375;-63
2022/09/06 03:55:10;;;;;;;9.82;8.63;;;18.70;99.90;;;;;;3060241;19;20014;-63
2022/09/06 03:56:12;;;;;;;9.45;8.35;;;18.70;99.90;;;;;;3058896;19;20025;-63
2022/09/06 03:57:15;;;;;;;10.00;8.20;;;18.50;99.90;;;;;;3059375;19;20044;-64
2022/09/06 03:58:19;;;;;;;9.57;8.63;;;18.60;99.90;;;;;;3059185;19;20023;-64
2022/09/06 03:59:23;;;;;;;10.52;8.75;;;18.70;99.90;;;;;;3059474;19;20069;-63
2022/09/06 04:00:24;;;;;;;10.15;9.13;;;18.70;99.90;;;;;;3059111;19;20022;-63
2022/09/06 04:01:28;;;;;;;9.82;8.82;;;18.70;99.90;;;;;;3060175;19;20014;-63
2022/09/06 04:02:30;;;;;;;10.73;9.30;;;18.70;99.90;;;;;;3058743;19;20010;-63
2022/09/06 04:03:34;;;;;;;13.35;9.32;;;18.50;99.90;;;;;;3059189;19;20408;-63
2022/09/06 04:04:38;;;;;;;10.00;9.00;;;18.70;99.90;;;;;;3056933;19;20015;-63
2022/09/06 04:05:42;;;;;;;10.20;9.07;;;18.40;99.90;;;;;;3059107;19;20343;-63
2022/09/06 04:06:46;;;;;;;11.43;8.88;;;18.60;99.90;;;;;;3058990;19;20028;-63
2022/09/06 04:07:47;;;;;;;11.40;8.70;;;18.70;99.90;;;;;;3060008;19;20019;-63
2022/09/06 04:08:51;;;;;;;10.02;8.63;;;18.60;99.90;;;;;;3058961;19;20011;-62
2022/09/06 04:09:52;;;;;;;10.27;8.63;;;18.80;99.90;;;;;;3058109;19;20337;-63
2022/09/06 04:10:57;;;;;;;10.40;9.13;;;18.60;99.90;;;;;;3057886;19;20074;-63
2022/09/06 04:11:58;;;;;;;11.57;8.88;;;18.80;99.90;;;;;;3059337;19;20411;-63
2022/09/06 04:13:02;;;;;;;11.60;9.20;;;18.60;99.90;;;;;;3059744;19;20380;-63
2022/09/06 04:14:03;;;;;;;10.35;9.25;;;18.60;99.90;;;;;;3058603;19;20413;-63
2022/09/06 04:15:08;;;;;;;10.57;9.35;;;18.70;99.90;;;;;;3058991;19;20007;-63
2022/09/06 04:16:10;;;;;;;9.88;8.80;;;18.40;99.90;;;;;;3058654;19;20017;-63
2022/09/06 04:17:14;;;;;;;10.77;9.45;;;18.70;99.90;;;;;;3058796;19;20033;-64
2022/09/06 04:18:16;;;;;;;12.85;9.20;;;18.60;99.90;;;;;;3058850;19;20014;-63
2022/09/06 04:19:20;;;;;;;10.48;9.23;;;18.60;99.90;;;;;;3058909;19;20010;-63
2022/09/06 04:20:23;;;;;;;11.07;8.80;;;18.80;99.90;;;;;;3058827;19;20006;-64
2022/09/06 04:21:27;;;;;;;12.20;9.32;;;18.70;99.90;;;;;;3058678;19;20022;-63
2022/09/06 04:22:29;;;;;;;10.88;9.77;;;18.60;99.90;;;;;;3058960;19;20022;-65
2022/09/06 04:23:33;;;;;;;12.27;9.02;;;18.60;99.90;;;;;;3057913;19;20017;-64
2022/09/06 04:24:34;;;;;;;10.77;9.13;;;18.60;99.90;;;;;;3058818;19;20006;-64
2022/09/06 04:25:38;;;;;;;10.45;8.77;;;18.60;99.90;;;;;;3058689;19;20031;-63
2022/09/06 04:26:42;;;;;;;10.23;9.02;;;18.50;99.90;;;;;;3058984;19;20344;-63
2022/09/06 04:27:43;;;;;;;12.55;9.35;;;18.60;99.90;;;;;;3059238;19;20018;-63
2022/09/06 04:28:48;;;;;;;11.00;9.25;;;18.60;99.90;;;;;;3058825;19;20018;-63
2022/09/06 04:29:49;;;;;;;11.18;9.07;;;18.80;99.90;;;;;;3058782;19;20024;-63
2022/09/06 04:30:57;;;;;;;9.93;8.93;;;18.70;99.90;;;;;;3058841;19;20062;-64
2022/09/06 04:31:59;;;;;;;11.40;9.10;;;18.70;99.90;;;;;;3058644;19;20014;-63
2022/09/06 04:33:03;;;;;;;10.38;9.35;;;18.60;99.90;;;;;;3059647;19;20475;-64
2022/09/06 04:34:04;;;;;;;9.93;8.90;;;18.50;99.90;;;;;;3058904;19;20020;-63
2022/09/06 04:35:09;;;;;;;11.23;9.65;;;18.50;99.90;;;;;;3058690;19;20013;-63
2022/09/06 04:36:13;;;;;;;12.20;9.30;;;18.50;99.90;;;;;;3058682;19;20022;-64
2022/09/06 04:37:18;;;;;;;10.27;9.18;;;18.70;99.90;;;;;;3058613;19;20006;-64
2022/09/06 04:38:20;;;;;;;9.93;8.63;;;18.50;99.90;;;;;;3059394;19;20026;-64
2022/09/06 04:39:24;;;;;;;12.25;9.23;;;18.70;99.90;;;;;;3057961;19;20018;-63
2022/09/06 04:40:25;;;;;;;11.95;9.00;;;18.70;99.90;;;;;;3059266;19;20030;-63
2022/09/06 04:41:29;;;;;;;11.65;8.85;;;18.70;99.90;;;;;;3059898;19;20025;-63
2022/09/06 04:42:31;;;;;;;12.27;9.43;;;18.60;99.90;;;;;;3058611;19;20009;-63
2022/09/06 04:43:34;;;;;;;;;;;18.60;99.90;;;;;;3058988;19;20681;-63
2022/09/06 04:44:36;;;;;;;10.88;9.43;;;18.50;99.90;;;;;;3058890;19;19918;-63
2022/09/06 04:45:40;;;;;;;12.32;9.52;;;18.70;99.90;;;;;;3058649;19;20003;-63
2022/09/06 04:46:41;;;;;;;10.93;9.75;;;18.50;99.90;;;;;;3060255;19;20450;-63
2022/09/06 04:47:45;;;;;;;11.13;9.65;;;18.50;99.90;;;;;;3058329;19;20478;-63
2022/09/06 04:48:47;;;;;;;11.13;9.57;;;18.70;99.90;;;;;;3058600;19;20028;-63
2022/09/06 04:49:51;;;;;;;10.55;9.48;;;18.70;99.90;;;;;;3058684;19;20501;-62
2022/09/06 04:50:52;;;;;;;12.13;9.55;;;18.60;99.90;;;;;;3058587;19;20011;-62
2022/09/06 04:51:59;;;;;;;12.88;9.60;;;18.60;99.90;;;;;;3059681;19;20487;-63
2022/09/06 04:53:00;;;;;;;10.85;9.75;;;18.70;99.90;;;;;;3058957;19;20018;-62
2022/09/06 04:54:04;;;;;;;10.95;9.52;;;18.60;99.90;;;;;;3058052;19;20014;-63
2022/09/06 04:55:07;;;;;;;12.57;10.07;;;18.60;99.90;;;;;;3058586;19;20599;-62
2022/09/06 04:56:16;;;;;;;10.88;9.77;;;18.60;99.90;;;;;;3057205;19;20086;-63
2022/09/06 04:57:17;;;;;;;11.52;9.50;;;18.30;99.90;;;;;;3057903;19;20471;-62
2022/09/06 04:58:21;;;;;;;14.75;9.82;;;18.30;99.90;;;;;;3058120;19;20027;-62
2022/09/06 04:59:22;;;;;;;10.63;9.43;;;18.40;99.90;;;;;;3058498;19;20471;-62
2022/09/06 05:00:26;;;;;;;12.98;10.07;;;18.60;99.90;;;;;;3057198;19;20022;-63
2022/09/06 05:01:28;;;;;;;13.00;9.82;;;18.50;99.90;;;;;;3060237;19;20068;-62
2022/09/06 05:02:32;;;;;;;11.18;9.75;;;18.20;99.90;;;;;;3058211;19;20038;-63
2022/09/06 05:03:33;;;;;;;11.65;9.38;;;18.50;99.90;;;;;;3059971;19;20019;-63
2022/09/06 05:04:37;;;;;;;11.88;9.60;;;18.50;99.90;;;;;;3059541;19;20032;-63
2022/09/06 05:05:38;;;;;;;11.07;9.40;;;18.30;99.90;;;;;;3058559;19;20066;-62
2022/09/06 05:06:42;;;;;;;11.57;10.40;;;18.50;99.90;;;;;;3058283;19;20022;-63
2022/09/06 05:07:46;;;;;;;10.65;9.55;;;18.50;99.90;;;;;;3058309;19;20014;-62
2022/09/06 05:08:50;;;;;;;11.52;10.27;;;18.50;99.90;;;;;;3059656;19;20616;-62
2022/09/06 05:09:52;;;;;;;12.70;9.95;;;18.60;99.90;;;;;;3058537;19;20002;-63
2022/09/06 05:10:55;;;;;;;11.85;10.38;;;18.50;99.90;;;;;;3057966;19;20038;-63
2022/09/06 05:11:57;;;;;;;11.80;9.93;;;18.60;99.90;;;;;;3058355;19;20479;-62
2022/09/06 05:13:01;;;;;;;13.40;10.68;;;18.50;99.90;;;;;;3059800;19;20074;-62
2022/09/06 05:14:02;;;;;;;14.15;10.90;;;18.40;99.90;;;;;;3057799;19;20066;-62
2022/09/06 05:15:07;;;;;;;14.10;10.57;;;18.40;99.90;;;;;;3057920;19;20014;-62
2022/09/06 05:16:09;;;;;;;14.90;9.98;;;18.40;99.90;;;;;;3057483;19;20020;-62
2022/09/06 05:17:13;;;;;;;13.95;10.40;;;18.40;99.90;;;;;;3057530;19;20501;-61
2022/09/06 05:18:14;;;;;;;13.50;10.77;;;18.50;99.90;;;;;;3058272;19;20006;-62
2022/09/06 05:19:18;;;;;;;12.23;10.77;;;18.40;99.90;;;;;;3057985;19;20011;-62
2022/09/06 05:20:21;;;;;;;15.05;10.40;;;18.50;99.90;;;;;;3059630;19;20023;-62
2022/09/06 05:21:25;;;;;;;12.35;11.00;;;18.30;99.90;;;;;;3057883;19;20010;-62
2022/09/06 05:22:27;;;;;;;12.70;10.68;;;18.60;99.90;;;;;;3058340;19;19999;-62
2022/09/06 05:23:33;;;;;;;13.13;10.52;;;18.60;99.90;;;;;;3057808;19;20398;-63
2022/09/06 05:24:34;;;;;;;13.80;11.38;;;18.50;99.90;;;;;;3059323;19;20015;-63
2022/09/06 05:25:38;;;;;;;12.77;11.02;;;18.50;99.90;;;;;;3057655;19;20015;-62
2022/09/06 05:26:40;;;;;;;11.65;10.45;;;18.50;99.90;;;;;;3058372;19;20010;-61
2022/09/06 05:27:43;;;;;;;15.52;10.95;;;18.50;99.90;;;;;;3057923;19;20014;-61
2022/09/06 05:28:45;;;;;;;13.30;11.10;;;18.60;99.90;;;;;;3058225;19;20006;-62
2022/09/06 05:29:48;;;;;;;14.43;10.90;;;18.60;99.90;;;;;;3057903;19;20002;-62
2022/09/06 05:30:50;;;;;;;12.82;11.05;;;18.70;99.90;;;;;;3058341;19;20011;-63
2022/09/06 05:31:54;;;;;;;12.05;10.75;;;18.50;99.90;;;;;;3057746;19;20010;-63
2022/09/06 05:32:55;;;;;;;13.60;11.90;;;18.50;99.90;;;;;;3058275;19;20349;-62
2022/09/06 05:33:59;;;;;;;13.18;11.15;;;18.50;99.90;;;;;;3057606;19;20011;-63
2022/09/06 05:35:01;;;;;;;12.13;10.88;;;18.40;99.90;;;;;;3058128;19;20003;-63
2022/09/06 05:36:05;;;;;;;14.27;11.75;;;18.60;99.90;;;;;;3057898;19;20357;-62
2022/09/06 05:37:06;;;;;;;13.50;11.15;;;18.60;99.90;;;;;;3057771;19;20022;-63